createdAt,value
2017-09-06T00:01:38.674Z,2.30
2017-09-06T00:04:06.794Z,2.97
2017-09-06T00:06:34.968Z,2.37
2017-09-06T00:09:03.104Z,2.50
2017-09-06T00:11:31.233Z,2.60
2017-09-06T00:13:59.409Z,2.80
2017-09-06T00:16:27.555Z,2.57
2017-09-06T00:18:55.682Z,2.40
2017-09-06T00:21:23.836Z,2.03
2017-09-06T00:23:51.975Z,2.70
2017-09-06T00:26:20.149Z,1.87
2017-09-06T00:28:48.282Z,2.20
2017-09-06T00:31:16.439Z,2.50
2017-09-06T00:33:44.565Z,2.00
2017-09-06T00:36:12.693Z,2.17
2017-09-06T00:38:40.859Z,2.03
2017-09-06T00:41:08.991Z,2.17
2017-09-06T00:43:37.131Z,2.33
2017-09-06T00:46:05.311Z,2.23
2017-09-06T00:48:33.444Z,2.87
2017-09-06T00:51:01.590Z,2.50
2017-09-06T00:53:29.738Z,2.00
2017-09-06T00:55:57.887Z,1.53
2017-09-06T00:58:26.041Z,2.47
2017-09-06T01:00:54.172Z,2.23
2017-09-06T01:03:22.344Z,1.90
2017-09-06T01:05:50.488Z,2.50
2017-09-06T01:08:18.740Z,2.50
2017-09-06T01:10:46.882Z,2.00
2017-09-06T01:13:15.017Z,2.03
2017-09-06T01:15:43.186Z,2.40
2017-09-06T01:18:11.335Z,2.13
2017-09-06T01:20:39.499Z,2.30
2017-09-06T01:23:07.643Z,2.33
2017-09-06T01:25:35.915Z,2.80
2017-09-06T01:28:04.055Z,2.30
2017-09-06T01:30:32.224Z,2.50
2017-09-06T01:33:00.345Z,2.40
2017-09-06T01:35:28.507Z,2.27
2017-09-06T01:37:56.673Z,2.17
2017-09-06T01:40:24.815Z,2.47
2017-09-06T01:42:53.589Z,2.40
2017-09-06T01:45:21.742Z,2.20
2017-09-06T01:47:49.892Z,2.43
2017-09-06T01:50:18.009Z,2.50
2017-09-06T01:52:46.177Z,2.50
2017-09-06T01:55:14.356Z,1.77
2017-09-06T01:57:42.481Z,1.87
2017-09-06T02:00:10.642Z,2.80
2017-09-06T02:02:38.813Z,2.50
2017-09-06T02:05:07.077Z,2.60
2017-09-06T02:07:35.219Z,2.20
2017-09-06T02:10:03.357Z,2.40
2017-09-06T02:12:31.518Z,2.40
2017-09-06T02:14:59.650Z,2.30
2017-09-06T02:17:27.798Z,2.00
2017-09-06T02:19:55.935Z,2.20
2017-09-06T02:22:24.107Z,2.30
2017-09-06T02:24:52.244Z,2.20
2017-09-06T02:27:20.373Z,2.20
2017-09-06T02:29:48.530Z,1.90
2017-09-06T02:32:16.662Z,2.27
2017-09-06T02:34:44.789Z,2.00
2017-09-06T02:37:12.955Z,2.00
2017-09-06T02:39:41.100Z,2.50
2017-09-06T02:42:09.263Z,2.20
2017-09-06T02:44:37.392Z,2.20
2017-09-06T02:47:05.535Z,2.37
2017-09-06T02:49:33.689Z,2.33
2017-09-06T02:52:01.816Z,2.13
2017-09-06T02:54:29.974Z,1.93
2017-09-06T02:56:58.097Z,1.63
2017-09-06T02:59:26.226Z,2.10
2017-09-06T03:01:54.483Z,2.40
2017-09-06T03:04:22.603Z,2.20
2017-09-06T03:06:50.734Z,2.00
2017-09-06T03:09:18.893Z,2.27
2017-09-06T03:11:47.035Z,1.83
2017-09-06T03:14:15.185Z,1.90
2017-09-06T03:16:43.320Z,2.20
2017-09-06T03:19:11.503Z,2.20
2017-09-06T03:21:39.649Z,2.03
2017-09-06T03:24:07.816Z,2.23
2017-09-06T03:26:35.969Z,2.10
2017-09-06T03:29:04.099Z,2.40
2017-09-06T03:31:32.287Z,2.07
2017-09-06T03:34:00.427Z,2.53
2017-09-06T03:36:28.566Z,2.30
2017-09-06T03:38:56.726Z,2.10
2017-09-06T03:41:24.862Z,2.70
2017-09-06T03:43:52.997Z,2.60
2017-09-06T03:46:21.151Z,1.80
2017-09-06T03:48:49.291Z,2.40
2017-09-06T03:51:17.448Z,2.20
2017-09-06T03:53:45.595Z,2.40
2017-09-06T03:56:13.759Z,1.80
2017-09-06T03:58:41.896Z,2.10
2017-09-06T04:01:10.017Z,2.80
2017-09-06T04:03:38.165Z,2.33
2017-09-06T04:06:06.301Z,1.80
2017-09-06T04:08:34.479Z,1.90
2017-09-06T04:11:02.615Z,1.70
2017-09-06T04:13:30.743Z,2.30
2017-09-06T04:15:58.923Z,2.03
2017-09-06T04:18:27.062Z,2.20
2017-09-06T04:20:55.201Z,1.70
2017-09-06T04:23:23.470Z,2.00
2017-09-06T04:25:51.615Z,1.60
2017-09-06T04:28:19.753Z,2.33
2017-09-06T04:30:47.900Z,1.87
2017-09-06T04:33:16.037Z,2.37
2017-09-06T04:35:44.194Z,1.87
2017-09-06T04:38:12.352Z,1.70
2017-09-06T04:40:40.507Z,1.77
2017-09-06T04:43:08.672Z,2.10
2017-09-06T04:45:36.799Z,2.03
2017-09-06T04:48:04.997Z,2.97
2017-09-06T04:50:33.151Z,2.50
2017-09-06T04:53:01.298Z,2.90
2017-09-06T04:55:29.561Z,3.40
2017-09-06T04:57:57.686Z,1.93
2017-09-06T05:00:25.812Z,2.07
2017-09-06T05:02:54.069Z,2.93
2017-09-06T05:05:22.196Z,2.17
2017-09-06T05:07:50.340Z,1.60
2017-09-06T05:10:18.544Z,3.07
2017-09-06T05:12:46.676Z,2.20
2017-09-06T05:15:14.836Z,2.23
2017-09-06T05:17:42.967Z,2.60
2017-09-06T05:20:11.208Z,2.90
2017-09-06T05:22:39.341Z,2.20
2017-09-06T05:25:07.474Z,2.27
2017-09-06T05:27:35.646Z,2.90
2017-09-06T05:30:03.783Z,2.93
2017-09-06T05:32:31.905Z,3.43
2017-09-06T05:35:00.062Z,3.63
2017-09-06T05:37:28.207Z,3.07
2017-09-06T05:39:56.348Z,2.10
2017-09-06T05:42:24.497Z,3.00
2017-09-06T05:44:52.626Z,3.93
2017-09-06T05:47:20.786Z,3.23
2017-09-06T05:49:48.910Z,2.40
2017-09-06T05:52:17.067Z,3.07
2017-09-06T05:54:45.203Z,2.30
2017-09-06T05:57:13.328Z,2.73
2017-09-06T05:59:41.481Z,2.20
2017-09-06T06:02:09.648Z,3.30
2017-09-06T06:04:37.811Z,3.67
2017-09-06T06:07:05.953Z,3.30
2017-09-06T06:09:34.117Z,3.03
2017-09-06T06:12:02.253Z,2.30
2017-09-06T06:14:30.414Z,2.47
2017-09-06T06:16:58.591Z,3.30
2017-09-06T06:19:26.751Z,3.17
2017-09-06T06:21:54.884Z,2.90
2017-09-06T06:24:23.043Z,2.50
2017-09-06T06:26:51.184Z,2.33
2017-09-06T06:29:19.349Z,2.40
2017-09-06T06:31:47.483Z,2.63
2017-09-06T06:34:15.605Z,2.37
2017-09-06T06:36:43.759Z,2.27
2017-09-06T06:39:11.894Z,2.60
2017-09-06T06:41:40.173Z,3.20
2017-09-06T06:44:08.337Z,2.20
2017-09-06T06:46:36.474Z,2.40
2017-09-06T06:49:04.626Z,2.43
2017-09-06T06:51:32.764Z,2.40
2017-09-06T06:54:00.904Z,2.70
2017-09-06T06:56:29.031Z,2.67
2017-09-06T06:58:57.188Z,2.97
2017-09-06T07:01:25.323Z,2.00
2017-09-06T07:03:53.500Z,2.00
2017-09-06T07:06:21.632Z,2.00
2017-09-06T07:08:49.757Z,1.83
2017-09-06T07:11:17.925Z,2.73
2017-09-06T07:13:46.045Z,2.03
2017-09-06T07:16:14.244Z,1.80
2017-09-06T07:18:42.368Z,2.13
2017-09-06T07:21:10.520Z,1.93
2017-09-06T07:23:38.651Z,2.00
2017-09-06T07:26:06.781Z,2.50
2017-09-06T07:28:34.952Z,2.20
2017-09-06T07:31:03.093Z,3.00
2017-09-06T07:33:31.236Z,2.70
2017-09-06T07:35:59.377Z,1.67
2017-09-06T07:38:27.507Z,2.27
2017-09-06T07:40:55.659Z,2.40
2017-09-06T07:43:24.238Z,2.77
2017-09-06T07:45:52.414Z,2.23
2017-09-06T07:48:20.540Z,2.00
2017-09-06T07:50:48.711Z,2.10
2017-09-06T07:53:16.832Z,2.13
2017-09-06T07:55:44.986Z,2.43
2017-09-06T07:58:13.201Z,1.90
2017-09-06T08:00:41.338Z,1.80
2017-09-06T08:03:09.509Z,1.50
2017-09-06T08:05:37.638Z,2.00
2017-09-06T08:08:09.778Z,2.00
2017-09-06T08:10:37.912Z,2.00
2017-09-06T08:13:06.031Z,1.90
2017-09-06T08:15:34.185Z,1.60
2017-09-06T08:18:02.312Z,1.70
2017-09-06T08:20:30.481Z,1.60
2017-09-06T08:22:58.728Z,2.00
2017-09-06T08:25:26.913Z,1.30
2017-09-06T08:27:55.071Z,1.67
2017-09-06T08:30:23.190Z,2.23
2017-09-06T08:32:51.338Z,2.20
2017-09-06T08:35:19.467Z,2.23
2017-09-06T08:37:47.730Z,2.10
2017-09-06T08:40:15.874Z,1.90
2017-09-06T08:42:43.993Z,1.90
2017-09-06T08:45:12.147Z,2.00
2017-09-06T08:47:40.273Z,1.87
2017-09-06T08:50:08.406Z,1.77
2017-09-06T08:52:36.567Z,2.00
2017-09-06T08:55:04.700Z,2.00
2017-09-06T08:57:32.932Z,2.00
2017-09-06T09:00:01.082Z,2.10
2017-09-06T09:02:29.222Z,1.60
2017-09-06T09:04:57.410Z,1.80
2017-09-06T09:07:25.666Z,1.87
2017-09-06T09:09:53.798Z,1.90
2017-09-06T09:12:21.929Z,1.80
2017-09-06T09:14:50.090Z,1.90
2017-09-06T09:17:18.219Z,1.57
2017-09-06T09:19:46.387Z,1.93
2017-09-06T09:22:14.506Z,1.50
2017-09-06T09:24:42.654Z,1.77
2017-09-06T09:27:10.782Z,1.77
2017-09-06T09:29:38.910Z,1.70
2017-09-06T09:32:07.065Z,1.70
2017-09-06T09:34:35.267Z,1.77
2017-09-06T09:37:03.424Z,1.83
2017-09-06T09:39:31.552Z,2.07
2017-09-06T09:41:59.672Z,1.90
2017-09-06T09:44:27.841Z,1.70
2017-09-06T09:46:56.001Z,2.00
2017-09-06T09:49:24.150Z,2.30
2017-09-06T09:51:52.278Z,1.60
2017-09-06T09:54:20.417Z,2.00
2017-09-06T09:56:48.565Z,1.83
2017-09-06T09:59:16.718Z,1.50
2017-09-06T10:01:44.890Z,1.47
2017-09-06T10:04:13.023Z,2.17
2017-09-06T10:06:41.160Z,1.60
2017-09-06T10:09:09.321Z,1.93
2017-09-06T10:11:37.501Z,1.83
2017-09-06T10:14:05.621Z,1.90
2017-09-06T10:16:33.779Z,1.57
2017-09-06T10:19:01.912Z,1.80
2017-09-06T10:21:30.058Z,1.73
2017-09-06T10:23:58.231Z,1.63
2017-09-06T10:26:26.360Z,1.83
2017-09-06T10:28:54.530Z,1.60
2017-09-06T10:31:22.666Z,1.80
2017-09-06T10:33:50.823Z,2.03
2017-09-06T10:36:18.995Z,1.40
2017-09-06T10:38:47.117Z,1.57
2017-09-06T10:41:15.255Z,1.50
2017-09-06T10:43:43.421Z,1.20
2017-09-06T10:46:11.550Z,1.83
2017-09-06T10:48:39.677Z,1.60
2017-09-06T10:51:07.837Z,1.63
2017-09-06T10:53:35.956Z,1.70
2017-09-06T10:56:04.114Z,1.40
2017-09-06T10:58:32.238Z,1.40
2017-09-06T11:01:00.397Z,1.70
2017-09-06T11:03:28.575Z,1.70
2017-09-06T11:05:56.698Z,1.30
2017-09-06T11:08:24.920Z,1.77
2017-09-06T11:10:53.042Z,1.40
2017-09-06T11:13:21.212Z,1.43
2017-09-06T11:15:49.343Z,1.20
2017-09-06T11:18:17.498Z,1.37
2017-09-06T11:20:45.639Z,1.67
2017-09-06T11:23:13.803Z,2.00
2017-09-06T11:25:41.935Z,1.70
2017-09-06T11:28:10.099Z,1.47
2017-09-06T11:30:38.226Z,1.30
2017-09-06T11:33:06.434Z,1.43
2017-09-06T11:35:34.612Z,1.30
2017-09-06T11:38:02.752Z,1.30
2017-09-06T11:40:30.954Z,1.40
2017-09-06T11:42:59.106Z,1.43
2017-09-06T11:45:27.277Z,1.20
2017-09-06T11:47:55.447Z,1.10
2017-09-06T11:50:23.582Z,1.90
2017-09-06T11:52:51.718Z,1.47
2017-09-06T11:55:19.883Z,1.20
2017-09-06T11:57:48.013Z,1.67
2017-09-06T12:00:16.174Z,1.80
2017-09-06T12:02:44.315Z,1.60
2017-09-06T12:05:12.477Z,1.50
2017-09-06T12:07:40.612Z,1.77
2017-09-06T12:10:08.758Z,1.50
2017-09-06T12:12:37.027Z,1.50
2017-09-06T12:15:05.167Z,1.77
2017-09-06T12:17:33.332Z,1.93
2017-09-06T12:20:01.507Z,1.20
2017-09-06T12:22:29.641Z,1.63
2017-09-06T12:24:57.779Z,1.57
2017-09-06T12:27:26.056Z,1.57
2017-09-06T12:29:54.198Z,1.50
2017-09-06T12:32:22.383Z,1.50
2017-09-06T12:34:50.539Z,1.30
2017-09-06T12:37:18.676Z,1.47
2017-09-06T12:39:46.825Z,1.50
2017-09-06T12:42:14.958Z,1.60
2017-09-06T12:44:43.105Z,1.83
2017-09-06T12:47:11.237Z,1.43
2017-09-06T12:49:39.363Z,1.40
2017-09-06T12:52:07.539Z,1.83
2017-09-06T12:54:35.660Z,2.23
2017-09-06T12:57:03.797Z,1.33
2017-09-06T12:59:31.951Z,1.60
2017-09-06T13:02:00.081Z,1.90
2017-09-06T13:04:28.205Z,1.50
2017-09-06T13:06:56.371Z,1.50
2017-09-06T13:09:24.502Z,2.00
2017-09-06T13:11:52.636Z,1.40
2017-09-06T13:14:20.795Z,1.57
2017-09-06T13:16:49.046Z,1.83
2017-09-06T13:19:17.196Z,1.73
2017-09-06T13:21:45.340Z,1.93
2017-09-06T13:24:13.476Z,2.00
2017-09-06T13:26:41.735Z,1.47
2017-09-06T13:29:09.858Z,2.03
2017-09-06T13:31:38.000Z,1.83
2017-09-06T13:34:06.142Z,1.43
2017-09-06T13:36:34.257Z,1.77
2017-09-06T13:39:02.531Z,1.87
2017-09-06T13:41:30.676Z,2.07
2017-09-06T13:43:58.802Z,1.30
2017-09-06T13:46:26.949Z,1.50
2017-09-06T13:48:55.107Z,1.40
2017-09-06T13:51:23.271Z,1.70
2017-09-06T13:53:51.407Z,1.73
2017-09-06T13:56:19.529Z,1.40
2017-09-06T13:58:47.750Z,1.20
2017-09-06T14:01:15.888Z,1.63
2017-09-06T14:03:44.026Z,1.90
2017-09-06T14:06:12.202Z,1.50
2017-09-06T14:08:40.320Z,1.50
2017-09-06T14:11:08.460Z,1.37
2017-09-06T14:13:36.640Z,1.40
2017-09-06T14:16:04.765Z,1.30
2017-09-06T14:18:32.895Z,1.53
2017-09-06T14:21:01.061Z,1.60
2017-09-06T14:23:29.181Z,1.70
2017-09-06T14:25:57.313Z,2.33
2017-09-06T14:28:25.508Z,1.53
2017-09-06T14:30:53.647Z,1.60
2017-09-06T14:33:21.870Z,1.73
2017-09-06T14:35:49.993Z,1.40
2017-09-06T14:38:18.126Z,1.30
2017-09-06T14:40:46.381Z,1.60
2017-09-06T14:43:14.514Z,1.60
2017-09-06T14:45:42.654Z,1.50
2017-09-06T14:48:10.808Z,1.30
2017-09-06T14:50:38.934Z,1.47
2017-09-06T14:53:07.104Z,1.40
2017-09-06T14:55:35.239Z,1.50
2017-09-06T14:58:03.376Z,1.63
2017-09-06T15:00:31.539Z,1.70
2017-09-06T15:02:59.730Z,1.40
2017-09-06T15:05:27.907Z,1.97
2017-09-06T15:07:56.052Z,1.63
2017-09-06T15:10:24.223Z,1.30
2017-09-06T15:12:52.437Z,1.17
2017-09-06T15:15:20.583Z,1.50
2017-09-06T15:17:48.741Z,1.10
2017-09-06T15:20:16.903Z,1.50
2017-09-06T15:22:45.029Z,1.43
2017-09-06T15:25:13.154Z,1.80
2017-09-06T15:27:41.410Z,1.60
2017-09-06T15:30:09.551Z,1.90
2017-09-06T15:32:37.685Z,1.30
2017-09-06T15:35:05.872Z,1.43
2017-09-06T15:37:34.012Z,1.50
2017-09-06T15:40:02.158Z,1.93
2017-09-06T15:42:30.320Z,1.67
2017-09-06T15:44:58.491Z,1.60
2017-09-06T15:47:26.637Z,1.37
2017-09-06T15:49:55.587Z,1.63
2017-09-06T15:52:23.748Z,1.80
2017-09-06T15:54:51.981Z,1.50
2017-09-06T15:57:20.169Z,1.77
2017-09-06T15:59:48.307Z,1.27
2017-09-06T16:02:16.433Z,1.50
2017-09-06T16:04:44.593Z,1.10
2017-09-06T16:07:12.714Z,1.70
2017-09-06T16:09:40.859Z,1.60
2017-09-06T16:12:09.014Z,1.70
2017-09-06T16:14:37.157Z,1.30
2017-09-06T16:17:05.326Z,1.20
2017-09-06T16:19:33.462Z,1.30
2017-09-06T16:22:01.624Z,1.23
2017-09-06T16:24:29.775Z,1.27
2017-09-06T16:26:57.951Z,1.40
2017-09-06T16:29:26.107Z,1.33
2017-09-06T16:31:54.244Z,1.70
2017-09-06T16:34:22.403Z,1.00
2017-09-06T16:36:50.543Z,1.17
2017-09-06T16:39:18.670Z,1.77
2017-09-06T16:41:46.826Z,1.80
2017-09-06T16:44:14.945Z,1.30
2017-09-06T16:46:43.102Z,1.10
2017-09-06T16:49:11.251Z,1.23
2017-09-06T16:51:39.414Z,1.43
2017-09-06T16:54:07.546Z,1.30
2017-09-06T16:56:35.678Z,2.10
2017-09-06T16:59:03.842Z,1.30
2017-09-06T17:01:31.970Z,1.87
2017-09-06T17:04:00.088Z,1.70
2017-09-06T17:06:28.304Z,1.63
2017-09-06T17:08:56.426Z,2.30
2017-09-06T17:11:24.559Z,1.67
2017-09-06T17:13:52.714Z,1.50
2017-09-06T17:16:20.846Z,1.50
2017-09-06T17:18:49.002Z,1.20
2017-09-06T17:21:17.144Z,1.67
2017-09-06T17:23:45.285Z,1.23
2017-09-06T17:26:13.601Z,1.70
2017-09-06T17:28:41.730Z,1.40
2017-09-06T17:31:09.853Z,2.30
2017-09-06T17:33:37.998Z,1.60
2017-09-06T17:36:06.136Z,2.10
2017-09-06T17:38:34.280Z,1.80
2017-09-06T17:41:02.434Z,2.37
2017-09-06T17:43:30.576Z,2.93
2017-09-06T17:45:58.749Z,4.57
2017-09-06T17:48:26.881Z,2.40
2017-09-06T17:50:55.036Z,1.50
2017-09-06T17:53:23.197Z,2.60
2017-09-06T17:55:51.453Z,2.53
2017-09-06T17:58:19.653Z,1.77
2017-09-06T18:00:47.803Z,2.33
2017-09-06T18:03:15.941Z,2.57
2017-09-06T18:05:44.134Z,2.50
2017-09-06T18:08:12.266Z,2.20
2017-09-06T18:10:40.418Z,2.50
2017-09-06T18:13:08.575Z,3.03
2017-09-06T18:15:36.699Z,2.10
2017-09-06T18:18:04.857Z,2.60
2017-09-06T18:20:33.012Z,1.93
2017-09-06T18:23:01.155Z,2.00
2017-09-06T18:25:29.429Z,2.50
2017-09-06T18:27:57.583Z,3.30
2017-09-06T18:30:25.756Z,2.00
2017-09-06T18:32:53.952Z,2.70
2017-09-06T18:35:22.114Z,2.10
2017-09-06T18:37:50.285Z,2.40
2017-09-06T18:40:18.417Z,2.67
2017-09-06T18:42:46.648Z,1.93
2017-09-06T18:45:14.796Z,3.30
2017-09-06T18:47:43.275Z,2.20
2017-09-06T18:50:11.855Z,2.10
2017-09-06T18:52:40.311Z,2.70
2017-09-06T18:55:08.792Z,3.73
2017-09-06T18:57:47.330Z,2.80
2017-09-06T19:00:15.594Z,2.07
2017-09-06T19:02:54.498Z,1.80
2017-09-06T19:05:23.678Z,1.80
2017-09-06T19:07:52.911Z,3.40
2017-09-06T19:10:22.220Z,1.90
2017-09-06T19:12:52.088Z,2.27
2017-09-06T19:15:21.267Z,2.60
2017-09-06T19:17:51.244Z,2.63
2017-09-06T19:20:21.297Z,3.10
2017-09-06T19:22:50.988Z,2.33
2017-09-06T19:25:20.986Z,3.83
2017-09-06T19:27:50.843Z,4.33
2017-09-06T19:30:20.227Z,3.83
2017-09-06T19:32:49.499Z,2.97
2017-09-06T19:35:19.182Z,4.80
2017-09-06T19:37:49.133Z,4.60
2017-09-06T19:40:19.078Z,2.73
2017-09-06T19:42:48.212Z,3.07
2017-09-06T19:45:17.339Z,3.00
2017-09-06T19:47:46.610Z,2.57
2017-09-06T19:50:15.816Z,3.03
2017-09-06T19:52:45.071Z,2.80
2017-09-06T19:55:14.280Z,2.43
2017-09-06T19:57:44.282Z,3.40
2017-09-06T20:00:13.172Z,2.50
2017-09-06T20:02:41.954Z,2.90
2017-09-06T20:05:11.364Z,3.50
2017-09-06T20:07:40.213Z,3.60
2017-09-06T20:10:08.837Z,3.70
2017-09-06T20:12:37.659Z,1.93
2017-09-06T20:15:06.374Z,2.93
2017-09-06T20:17:35.121Z,2.53
2017-09-06T20:20:03.484Z,4.27
2017-09-06T20:22:31.725Z,2.90
2017-09-06T20:25:00.006Z,2.20
2017-09-06T20:27:28.248Z,3.10
2017-09-06T20:29:56.438Z,2.17
2017-09-06T20:32:24.593Z,2.90
2017-09-06T20:34:52.934Z,3.70
2017-09-06T20:37:21.180Z,2.17
2017-09-06T20:39:49.318Z,3.10
2017-09-06T20:42:17.457Z,2.63
2017-09-06T20:44:45.611Z,2.43
2017-09-06T20:47:13.755Z,2.10
2017-09-06T20:49:41.932Z,3.00
2017-09-06T20:52:10.074Z,2.20
2017-09-06T20:54:38.223Z,1.90
2017-09-06T20:57:06.359Z,3.67
2017-09-06T20:59:34.481Z,2.33
2017-09-06T21:02:02.679Z,2.67
2017-09-06T21:04:30.807Z,2.13
2017-09-06T21:06:58.953Z,2.30
2017-09-06T21:09:27.119Z,2.00
2017-09-06T21:11:55.256Z,2.57
2017-09-06T21:14:23.380Z,1.80
2017-09-06T21:16:51.541Z,3.00
2017-09-06T21:19:19.676Z,2.30
2017-09-06T21:21:47.805Z,5.60
2017-09-06T21:24:15.953Z,3.37
2017-09-06T21:26:44.095Z,2.60
2017-09-06T21:29:12.246Z,2.60
2017-09-06T21:31:40.369Z,2.80
2017-09-06T21:34:08.509Z,2.00
2017-09-06T21:36:36.657Z,2.80
2017-09-06T21:39:04.807Z,2.50
2017-09-06T21:41:32.965Z,2.93
2017-09-06T21:44:01.097Z,2.30
2017-09-06T21:46:29.222Z,2.37
2017-09-06T21:48:57.375Z,1.93
2017-09-06T21:51:25.500Z,2.13
2017-09-06T21:53:53.668Z,2.60
2017-09-06T21:56:21.791Z,3.10
2017-09-06T21:58:49.949Z,2.40
2017-09-06T22:01:18.080Z,1.97
2017-09-06T22:03:46.233Z,2.27
2017-09-06T22:06:14.356Z,2.70
2017-09-06T22:08:42.486Z,2.63
2017-09-06T22:11:10.674Z,1.90
2017-09-06T22:13:38.801Z,2.43
2017-09-06T22:16:06.938Z,2.90
2017-09-06T22:18:35.194Z,2.60
2017-09-06T22:21:03.333Z,3.50
2017-09-06T22:23:31.463Z,2.47
2017-09-06T22:25:59.619Z,2.17
2017-09-06T22:29:16.784Z,2.67
2017-09-06T22:31:45.684Z,2.40
2017-09-06T22:34:13.848Z,2.83
2017-09-06T22:36:42.740Z,2.60
2017-09-06T22:39:10.881Z,2.03
2017-09-06T22:41:39.042Z,2.67
2017-09-06T22:44:07.180Z,3.13
2017-09-06T22:46:35.369Z,2.50
2017-09-06T22:49:04.276Z,2.00
2017-09-06T22:51:32.405Z,2.37
2017-09-06T22:54:00.569Z,1.87
2017-09-06T22:56:28.711Z,3.10
2017-09-06T22:58:58.061Z,2.70
2017-09-06T23:01:26.198Z,2.77
2017-09-06T23:03:55.102Z,2.17
2017-09-06T23:06:23.252Z,1.93
2017-09-06T23:08:52.168Z,3.07
2017-09-06T23:11:20.307Z,2.23
2017-09-06T23:13:49.231Z,2.17
2017-09-06T23:16:17.357Z,2.20
2017-09-06T23:18:45.507Z,2.53
2017-09-06T23:21:14.394Z,2.33
2017-09-06T23:23:43.313Z,2.20
2017-09-06T23:26:12.211Z,2.30
2017-09-06T23:28:41.345Z,2.17
2017-09-06T23:31:09.490Z,2.80
2017-09-06T23:33:37.621Z,3.37
2017-09-06T23:36:05.779Z,2.27
2017-09-06T23:38:34.679Z,2.20
2017-09-06T23:41:02.853Z,2.53
2017-09-06T23:43:30.978Z,2.90
2017-09-06T23:45:59.122Z,2.10
2017-09-06T23:48:28.051Z,3.33
2017-09-06T23:50:56.178Z,1.90
2017-09-06T23:53:25.107Z,2.50
2017-09-06T23:55:53.250Z,2.33
2017-09-06T23:58:22.175Z,2.17
